tititudorancea.com
Station Historical Data
Daily Summary for January 16, 2019 Units:  Metric    English   Both
« Previous Day
Next Day »
Daily Weekly Monthly Yearly Custom
  High: Low: Average:
Temperature: -17.8 °C 15.5 °C 22.4 °C
Dew Point: -17.8 °C 3.4 °C 9.8 °C
Humidity: Humidity % 14 % 49 %
Wind Speed: 0 km/h 0 km/h 5.6 km/h
Wind Gust: 0 km/h - -
Wind:- - South
Pressure: 0 hPa 1005.6 hPa -
Precipitation: 0 mm    
Historical Graphs
 
 
Ararat weather Find more about Weather in Ararat, AU


 



 


Tabular Data for January 16, 2019
Time Temperature Dew Point Pressure Wind Wind Speed Wind Gust Humidity Rainfall Rate (Hourly)
-17.8 °C -17.8 °C 0 hPa Calm     Humidity % 0 mm
00:04 25.2 °C 3.8 °C 1008.7 hPa SSW 18.5 km/h 13.7 km/h 25 % 0 mm
00:09 24.9 °C 3.6 °C 1008.7 hPa SW 16.7 km/h 10.9 km/h 25 % 0 mm
00:14 24.7 °C 3.9 °C 1008.7 hPa SW 20.4 km/h 15.1 km/h 26 % 0 mm
00:19 24.4 °C 3.6 °C 1008.7 hPa SSW 18.5 km/h 11.4 km/h 26 % 0 mm
00:24 24.1 °C 3.9 °C 1008.7 hPa SSW 18.5 km/h 6.4 km/h 27 % 0 mm
00:29 23.7 °C 3.6 °C 1008.7 hPa SSW 18.5 km/h 11.3 km/h 27 % 0 mm
00:34 23.4 °C 3.9 °C 1008.7 hPa South 11.1 km/h 3.2 km/h 28 % 0 mm
00:39 23.2 °C 4.2 °C 1008.7 hPa South 13 km/h 11.1 km/h 29 % 0 mm
00:44 22.9 °C 3.9 °C 1008.7 hPa South 16.7 km/h 9.2 km/h 29 % 0 mm
00:49 22.7 °C 4.2 °C 1008.7 hPa South 11.1 km/h 9.3 km/h 30 % 0 mm
00:54 22.5 °C 4.1 °C 1009 hPa South 16.7 km/h 10 km/h 30 % 0 mm
00:59 22.2 °C 4.3 °C 1009 hPa South 18.5 km/h 9 km/h 31 % 0 mm
01:04 22.1 °C 4.6 °C 1009 hPa South 17.7 km/h 10.8 km/h 32 % 0 mm
01:09 21.9 °C 4.9 °C 1009 hPa South 14.5 km/h 8.9 km/h 33 % 0 mm
01:14 21.7 °C 5.2 °C 1009 hPa South 14.8 km/h 9.3 km/h 34 % 0 mm
01:19 21.6 °C 5.4 °C 1009 hPa South 11.3 km/h 5.5 km/h 35 % 0 mm
01:24 21.4 °C 6.1 °C 1009 hPa South 18.5 km/h 10.1 km/h 37 % 0 mm
01:29 21.1 °C 6.6 °C 1009 hPa South 18.5 km/h 6.6 km/h 39 % 0 mm
01:34 20.9 °C 6.8 °C 1009 hPa South 11.1 km/h 7.4 km/h 40 % 0 mm
01:39 20.7 °C 7.3 °C 1009 hPa South 14.8 km/h 8.9 km/h 42 % 0 mm
01:44 20.5 °C 7.5 °C 1008.7 hPa South 7.4 km/h 5.6 km/h 43 % 0 mm
01:49 20.3 °C 7.3 °C 1008.7 hPa South 7.4 km/h 4.8 km/h 43 % 0 mm
01:54 20.2 °C 7.2 °C 1008.4 hPa South 5.6 km/h 2.4 km/h 43 % 0 mm
01:59 19.9 °C 6.6 °C 1008.4 hPa South 5.6 km/h 1.4 km/h 42 % 0 mm
02:04 19.7 °C 6.1 °C 1008.4 hPa South 3.7 km/h   41 % 0 mm
02:05 25.3 °C 3.9 °C 1008.7 hPa SSW 14.5 km/h 20.9 km/h 25 % 0 mm
02:09 19.5 °C 6.2 °C 1008 hPa South 6.4 km/h 3.7 km/h 42 % 0 mm
02:10 25.2 °C 3.7 °C 1008.7 hPa SSW 8 km/h 19.3 km/h 25 % 0 mm
02:14 19.3 °C 6.4 °C 1008 hPa South 5.6 km/h 3.7 km/h 43 % 0 mm
02:15 24.8 °C 3.4 °C 1008.7 hPa SSW 12.9 km/h 24.1 km/h 25 % 0 mm
02:19 19.1 °C 6.9 °C 1008 hPa South 5.6 km/h 3.1 km/h 45 % 0 mm
02:20 24.6 °C 3.8 °C 1008.7 hPa SSW 11.3 km/h 25.7 km/h 26 % 0 mm
02:24 18.9 °C 6.7 °C 1008 hPa South 5.6 km/h 5 km/h 45 % 0 mm
02:25 24.3 °C 3.6 °C 1008.7 hPa SSW 11.3 km/h 25.7 km/h 26 % 0 mm
02:29 18.8 °C 6.9 °C 1007.7 hPa South 5.6 km/h 4.5 km/h 46 % 0 mm
02:30 23.9 °C 3.8 °C 1008.7 hPa SSW 12.9 km/h 17.7 km/h 27 % 0 mm
02:34 18.7 °C 7.2 °C 1007.7 hPa South 5.6 km/h 4.3 km/h 47 % 0 mm
02:35 23.7 °C 4.1 °C 1008.7 hPa SSW 11.3 km/h 24.1 km/h 28 % 0 mm
02:39 18.7 °C 7.4 °C 1007.7 hPa South 5.6 km/h 2.6 km/h 48 % 0 mm
02:40 23.3 °C 3.8 °C 1008.7 hPa South 9.7 km/h 14.5 km/h 28 % 0 mm
02:44 18.7 °C 7.4 °C 1007.3 hPa South 5.6 km/h 4.8 km/h 48 % 0 mm
02:45 23.1 °C 4.1 °C 1008.7 hPa South 12.9 km/h 19.3 km/h 29 % 0 mm
02:49 18.7 °C 7.4 °C 1007.3 hPa South 7.4 km/h 5.1 km/h 48 % 0 mm
02:50 22.8 °C 4.3 °C 1008.7 hPa South 8 km/h 17.7 km/h 30 % 0 mm
02:54 18.7 °C 7.5 °C 1007.3 hPa South 7.4 km/h 6.1 km/h 48 % 0 mm
02:55 22.7 °C 4.2 °C 1008.7 hPa South 4.8 km/h 20.9 km/h 30 % 0 mm
02:59 18.7 °C 7.2 °C 1007.3 hPa South 9.3 km/h 5.6 km/h 47 % 0 mm
03:00 22.4 °C 3.9 °C 1009 hPa South 9.7 km/h 16.1 km/h 30 % 0 mm
03:04 18.7 °C 7.5 °C 1007.3 hPa South 5.6 km/h 4 km/h 48 % 0 mm
03:05 22.2 °C 4.2 °C 1009 hPa South 11.3 km/h 19.3 km/h 31 % 0 mm
03:09 18.7 °C 7.2 °C 1007.3 hPa South 5.6 km/h 3.4 km/h 47 % 0 mm
03:10 22.1 °C 4.6 °C 1009 hPa South 9.7 km/h 20.9 km/h 32 % 0 mm
03:14 18.7 °C 7.2 °C 1007 hPa South 3.7 km/h 2.7 km/h 47 % 0 mm
03:15 21.9 °C 4.9 °C 1009 hPa South 8 km/h 22.5 km/h 33 % 0 mm
03:19 18.7 °C 7.2 °C 1007 hPa South 5.6 km/h 4.7 km/h 47 % 0 mm
03:20 21.7 °C 5.2 °C 1009 hPa South 8 km/h 22.5 km/h 34 % 0 mm
03:24 18.7 °C 7.2 °C 1007.3 hPa South 7.4 km/h 4.5 km/h 47 % 0 mm
03:25 21.5 °C 5.8 °C 1009 hPa South 9.7 km/h 14.5 km/h 36 % 0 mm
03:29 18.7 °C 7.1 °C 1007 hPa South 5.6 km/h 2.9 km/h 47 % 0 mm
03:30 21.3 °C 6 °C 1009 hPa South 9.7 km/h 17.7 km/h 37 % 0 mm
03:34 18.6 °C 7.1 °C 1007 hPa South 7.4 km/h 3.5 km/h 47 % 0 mm
03:35 21.1 °C 6.6 °C 1009 hPa South 9.7 km/h 17.7 km/h 39 % 0 mm
03:39 18.6 °C 6.8 °C 1007 hPa South 7.4 km/h 4.3 km/h 46 % 0 mm
03:40 20.9 °C 6.8 °C 1009 hPa South 4.8 km/h 14.5 km/h 40 % 0 mm
03:44 18.6 °C 6.8 °C 1007 hPa South 8 km/h 6.4 km/h 46 % 0 mm
03:45 20.7 °C 7.3 °C 1009 hPa South 3.2 km/h 14.5 km/h 42 % 0 mm
03:49 18.7 °C 6.8 °C 1007 hPa South 5.6 km/h 4.2 km/h 46 % 0 mm
03:50 20.4 °C 7.4 °C 1008.7 hPa South 4.8 km/h 12.9 km/h 43 % 0 mm
03:54 18.6 °C 6.8 °C 1007 hPa South 9.3 km/h 6 km/h 46 % 0 mm
03:55 20.3 °C 7.3 °C 1008.7 hPa South 4.8 km/h 11.3 km/h 43 % 0 mm
03:59 18.6 °C 7 °C 1007 hPa South 5.6 km/h 5.6 km/h 47 % 0 mm
04:00 20.1 °C 7.1 °C 1008.4 hPa South 1.6 km/h 9.7 km/h 43 % 0 mm
04:04 18.4 °C 7.5 °C 1007 hPa South 9.3 km/h 6.3 km/h 49 % 0 mm
04:05 19.8 °C 6.6 °C 1008.4 hPa South 1.6 km/h 4.8 km/h 42 % 0 mm
04:09 18.3 °C 7.7 °C 1007.3 hPa South 5.6 km/h 3.2 km/h 50 % 0 mm
04:10 19.6 °C 6 °C 1008 hPa South 1.6 km/h 3.2 km/h 41 % 0 mm
04:14 18.2 °C 7.8 °C 1007 hPa South 6.4 km/h 5.6 km/h 51 % 0 mm
04:15 19.4 °C 6.2 °C 1008 hPa South 4.8 km/h 6.4 km/h 42 % 0 mm
04:19 18.1 °C 8.3 °C 1007.3 hPa South 8 km/h 6.3 km/h 53 % 0 mm
04:20 19.2 °C 6.7 °C 1008 hPa South 3.2 km/h 6.4 km/h 44 % 0 mm
04:24 17.9 °C 8.5 °C 1007.3 hPa South 5.6 km/h 6 km/h 54 % 0 mm
04:25 19.1 °C 6.8 °C 1008 hPa South 3.2 km/h 4.8 km/h 45 % 0 mm
04:29 17.8 °C 8.6 °C 1007.3 hPa South 8 km/h 6.4 km/h 55 % 0 mm
04:30 18.9 °C 7 °C 1008 hPa South 3.2 km/h 6.4 km/h 46 % 0 mm
04:34 17.7 °C 8.8 °C 1007.3 hPa South 11.1 km/h 4.2 km/h 56 % 0 mm
04:35 18.8 °C 7.2 °C 1007.7 hPa South 4.8 km/h 6.4 km/h 47 % 0 mm
04:39 17.6 °C 8.7 °C 1007 hPa South 5.6 km/h 1.8 km/h 56 % 0 mm
04:40 18.7 °C 7.5 °C 1007.7 hPa South 4.8 km/h 6.4 km/h 48 % 0 mm
04:44 17.5 °C 8.9 °C 1007 hPa South 6.4 km/h 4.5 km/h 57 % 0 mm
04:45 18.7 °C 7.4 °C 1007.7 hPa South 3.2 km/h 6.4 km/h 48 % 0 mm
04:49 17.4 °C 8.8 °C 1007 hPa South 9.7 km/h 5.3 km/h 57 % 0 mm
04:50 18.7 °C 7.4 °C 1007.3 hPa South 4.8 km/h 8 km/h 48 % 0 mm
04:54 17.3 °C 8.9 °C 1007.3 hPa South 7.4 km/h 5.5 km/h 58 % 0 mm
04:55 18.7 °C 7.5 °C 1007.3 hPa South 3.2 km/h 8 km/h 48 % 0 mm
04:59 17.2 °C 9.1 °C 1007.3 hPa South 11.1 km/h 5.5 km/h 59 % 0 mm
05:00 18.7 °C 7.5 °C 1007.3 hPa South 4.8 km/h 8 km/h 48 % 0 mm
05:04 17 °C 9.7 °C 1007.3 hPa South 13 km/h 6.6 km/h 62 % 0 mm
05:05 18.7 °C 7.2 °C 1007.3 hPa South 4.8 km/h 11.3 km/h 47 % 0 mm
05:09 17 °C 10.1 °C 1007.3 hPa South 11.1 km/h 7.2 km/h 64 % 0 mm
05:10 18.7 °C 7.2 °C 1007.3 hPa South 4.8 km/h 8 km/h 47 % 0 mm
05:14 16.9 °C 10.1 °C 1007.3 hPa South 11.3 km/h 7.7 km/h 64 % 0 mm
05:15 18.7 °C 7.2 °C 1007.3 hPa South 3.2 km/h 4.8 km/h 47 % 0 mm
05:19 16.9 °C 10.1 °C 1007.3 hPa South 13 km/h 8 km/h 64 % 0 mm
05:20 18.7 °C 7.2 °C 1007 hPa South 4.8 km/h 6.4 km/h 47 % 0 mm
05:24 16.8 °C 10.7 °C 1007.3 hPa South 12.9 km/h 7.7 km/h 67 % 0 mm
05:25 18.7 °C 7.2 °C 1007 hPa South 4.8 km/h 6.4 km/h 47 % 0 mm
05:29 16.8 °C 11.5 °C 1007.3 hPa South 9.7 km/h 8.7 km/h 71 % 0 mm
05:30 18.7 °C 7.2 °C 1007 hPa South 3.2 km/h 8 km/h 47 % 0 mm
05:34 16.7 °C 11.8 °C 1007.3 hPa South 11.1 km/h 6.4 km/h 73 % 0 mm
05:35 18.7 °C 7.1 °C 1007 hPa South 4.8 km/h 6.4 km/h 47 % 0 mm
05:39 16.7 °C 12.2 °C 1007 hPa South 9.3 km/h 5.1 km/h 75 % 0 mm
05:40 18.6 °C 7.1 °C 1007 hPa South 4.8 km/h 8 km/h 47 % 0 mm
05:44 16.6 °C 12.3 °C 1007 hPa South 9.3 km/h 4.3 km/h 76 % 0 mm
05:45 18.6 °C 6.8 °C 1007 hPa South 4.8 km/h 8 km/h 46 % 0 mm
05:49 16.5 °C 12.8 °C 1007 hPa North 8 km/h 7.2 km/h 79 % 0 mm
05:50 18.6 °C 6.8 °C 1007 hPa South 4.8 km/h 9.7 km/h 46 % 0 mm
05:54 16.4 °C 12.7 °C 1007.3 hPa South 9.3 km/h 2.9 km/h 79 % 0 mm
05:55 18.6 °C 6.8 °C 1007 hPa South 4.8 km/h 11.3 km/h 46 % 0 mm
05:59 16.3 °C 12.9 °C 1007.3 hPa South 9.3 km/h 6.4 km/h 80 % 0 mm
06:00 18.6 °C 6.8 °C 1007 hPa South 4.8 km/h 9.7 km/h 46 % 0 mm
06:04 16.3 °C 13 °C 1007.3 hPa South 5.6 km/h 3.2 km/h 81 % 0 mm
06:05 18.6 °C 7.3 °C 1007 hPa South 1.6 km/h 6.4 km/h 48 % 0 mm
06:09 16.1 °C 12.8 °C 1007 hPa South 7.4 km/h 5.3 km/h 81 % 0 mm
06:10 18.4 °C 7.5 °C 1007.3 hPa South 4.8 km/h 9.7 km/h 49 % 0 mm
06:14 15.9 °C 12.9 °C 1007.3 hPa North 5.6 km/h 4.5 km/h 82 % 0 mm
06:15 18.3 °C 7.9 °C 1007 hPa South 4.8 km/h 6.4 km/h 51 % 0 mm
06:19 15.8 °C 12.7 °C 1007.3 hPa South 8 km/h 6.8 km/h 82 % 0 mm
06:20 18.1 °C 8.1 °C 1007 hPa South 4.8 km/h 9.7 km/h 52 % 0 mm
06:24 15.8 °C 12.9 °C 1007.3 hPa North 5.6 km/h 1.3 km/h 83 % 0 mm
06:25 18 °C 8.3 °C 1007.3 hPa South 4.8 km/h 9.7 km/h 53 % 0 mm
06:29 15.7 °C 12.8 °C 1007.3 hPa South 8 km/h 4 km/h 83 % 0 mm
06:30 17.9 °C 8.4 °C 1007.3 hPa South 4.8 km/h 8 km/h 54 % 0 mm
06:34 15.6 °C 12.7 °C 1007.3 hPa South 3.7 km/h 0.6 km/h 83 % 0 mm
06:35 17.8 °C 8.6 °C 1007.3 hPa South 4.8 km/h 9.7 km/h 55 % 0 mm
06:39 15.6 °C 12.7 °C 1007.3 hPa Calm     83 % 0 mm
06:40 17.7 °C 8.8 °C 1007.3 hPa Calm   11.3 km/h 56 % 0 mm
06:44 15.6 °C 12.9 °C 1007.3 hPa South 5.6 km/h 2.4 km/h 84 % 0 mm
06:45 17.6 °C 8.9 °C 1007 hPa South 1.6 km/h 4.8 km/h 57 % 0 mm
06:49 15.6 °C 12.9 °C 1007.3 hPa South 5.6 km/h 4.7 km/h 84 % 0 mm
06:50 17.4 °C 8.6 °C 1007.3 hPa South 4.8 km/h 8 km/h 56 % 0 mm
06:54 15.5 °C 12.8 °C 1007.3 hPa South 1.9 km/h 1.3 km/h 84 % 0 mm
06:55 17.3 °C 8.7 °C 1007.3 hPa South 4.8 km/h 11.3 km/h 57 % 0 mm
06:59 15.6 °C 13.1 °C 1007.3 hPa Calm     85 % 0 mm
07:00 17.2 °C 8.9 °C 1007.3 hPa South 4.8 km/h 11.3 km/h 58 % 0 mm
07:04 15.6 °C 13.1 °C 1007.7 hPa South 5.6 km/h 3.5 km/h 85 % 0 mm
07:05 17.1 °C 9.3 °C 1007.3 hPa South 4.8 km/h 11.3 km/h 60 % 0 mm
07:09 15.7 °C 13.2 °C 1007.3 hPa Calm     85 % 0 mm
07:10 17 °C 9.9 °C 1007.3 hPa South 4.8 km/h 12.9 km/h 63 % 0 mm
07:14 15.9 °C 13.4 °C 1007.3 hPa Calm   0.2 km/h 85 % 0 mm
07:15 17 °C 10.1 °C 1007.3 hPa South 4.8 km/h 11.3 km/h 64 % 0 mm
07:19 16.1 °C 13.6 °C 1007.7 hPa South 5.6 km/h 4.7 km/h 85 % 0 mm
07:20 16.9 °C 10.1 °C 1007.3 hPa South 8 km/h 11.3 km/h 64 % 0 mm
07:24 16.2 °C 13.7 °C 1008 hPa South 7.4 km/h 6.8 km/h 85 % 0 mm
07:25 16.9 °C 10.5 °C 1007.3 hPa South 8 km/h 14.5 km/h 66 % 0 mm
07:29 16.4 °C 13.9 °C 1008 hPa North 5.6 km/h 3.5 km/h 85 % 0 mm
07:30 16.8 °C 10.8 °C 1007.3 hPa South 8 km/h 12.9 km/h 68 % 0 mm
07:34 16.7 °C 13.9 °C 1008 hPa South 6.4 km/h 4.7 km/h 84 % 0 mm
07:35 16.8 °C 11.5 °C 1007.3 hPa South 4.8 km/h 14.5 km/h 71 % 0 mm
07:39 16.9 °C 14.2 °C 1007.7 hPa North 5.6 km/h 3.1 km/h 84 % 0 mm
07:40 16.7 °C 11.8 °C 1007.3 hPa South 4.8 km/h 11.3 km/h 73 % 0 mm
07:44 17.2 °C 14.3 °C 1008 hPa South 5.6 km/h 2.6 km/h 83 % 0 mm
07:45 16.7 °C 12.2 °C 1007 hPa South 4.8 km/h 11.3 km/h 75 % 0 mm
07:49 17.6 °C 14.5 °C 1008 hPa South 5.6 km/h 1.4 km/h 82 % 0 mm
07:50 16.6 °C 12.5 °C 1007 hPa South 4.8 km/h 9.7 km/h 77 % 0 mm
07:54 18.1 °C 14.6 °C 1008 hPa South 3.7 km/h 0.8 km/h 80 % 0 mm
07:55 16.5 °C 12.8 °C 1007 hPa South 4.8 km/h 9.7 km/h 79 % 0 mm
07:59 18.4 °C 14.3 °C 1008 hPa South 5.6 km/h 5.1 km/h 77 % 0 mm
08:00 16.4 °C 12.9 °C 1007.3 hPa South 4.8 km/h 9.7 km/h 80 % 0 mm
08:04 18.8 °C 14.4 °C 1008.4 hPa South 5.6 km/h 2.3 km/h 76 % 0 mm
08:05 16.3 °C 13.1 °C 1007.3 hPa South 4.8 km/h 9.7 km/h 81 % 0 mm
08:09 19.3 °C 14.5 °C 1008.4 hPa Calm     74 % 0 mm
08:10 16.2 °C 12.9 °C 1007.3 hPa South 4.8 km/h 9.7 km/h 81 % 0 mm
08:14 19.7 °C 14.7 °C 1008.4 hPa South 5.6 km/h 2.6 km/h 73 % 0 mm
08:15 16.1 °C 12.8 °C 1007 hPa South 4.8 km/h 8 km/h 81 % 0 mm
08:19 20.3 °C 14.8 °C 1008 hPa South 1.9 km/h 1.4 km/h 71 % 0 mm
08:20 15.9 °C 12.6 °C 1007.3 hPa South 4.8 km/h 8 km/h 81 % 0 mm
08:24 20.8 °C 14.9 °C 1008 hPa South 5.6 km/h 3.7 km/h 69 % 0 mm
08:25 15.8 °C 12.7 °C 1007.3 hPa South 4.8 km/h 9.7 km/h 82 % 0 mm
08:29 21.2 °C 14.8 °C 1008 hPa South 6.4 km/h 5.6 km/h 67 % 0 mm
08:30 15.7 °C 12.8 °C 1007.3 hPa South 3.2 km/h 6.4 km/h 83 % 0 mm
08:34 21.4 °C 14.6 °C 1008 hPa South 5.6 km/h 1.1 km/h 65 % 0 mm
08:35 15.7 °C 12.8 °C 1007.3 hPa South 1.6 km/h 8 km/h 83 % 0 mm
08:39 21.6 °C 14 °C 1008 hPa South 5.6 km/h 4 km/h 62 % 0 mm
08:40 15.6 °C 12.7 °C 1007.3 hPa Calm   3.2 km/h 83 % 0 mm
08:42 21.7 °C 14.1 °C 1008 hPa South 3.7 km/h 2.6 km/h 62 % 0 mm
08:45 15.6 °C 12.7 °C 1007.3 hPa Calm     83 % 0 mm
08:50 15.5 °C 12.8 °C 1007.3 hPa South 3.2 km/h 4.8 km/h 84 % 0 mm
08:55 15.6 °C 12.9 °C 1007.3 hPa South 3.2 km/h 6.4 km/h 84 % 0 mm
09:00 15.5 °C 13 °C 1007.3 hPa Calm   4.8 km/h 85 % 0 mm
09:05 15.5 °C 13 °C 1007.3 hPa South 3.2 km/h 4.8 km/h 85 % 0 mm
09:10 15.6 °C 13.1 °C 1007.3 hPa Calm   6.4 km/h 85 % 0 mm
09:15 15.8 °C 13.4 °C 1007.3 hPa Calm   1.6 km/h 86 % 0 mm
09:20 16 °C 13.5 °C 1007.3 hPa Calm   1.6 km/h 85 % 0 mm
09:25 16.1 °C 13.6 °C 1007.7 hPa South 4.8 km/h 6.4 km/h 85 % 0 mm
09:30 16.3 °C 13.8 °C 1008 hPa South 4.8 km/h 9.7 km/h 85 % 0 mm
09:35 16.5 °C 13.9 °C 1008 hPa South 3.2 km/h 8 km/h 85 % 0 mm
09:40 16.7 °C 14 °C 1008 hPa South 3.2 km/h 6.4 km/h 84 % 0 mm
09:45 17 °C 14.3 °C 1007.7 hPa South 1.6 km/h 4.8 km/h 84 % 0 mm
09:50 17.3 °C 14.2 °C 1008 hPa South 1.6 km/h 4.8 km/h 82 % 0 mm
09:55 17.8 °C 14.5 °C 1008 hPa South 4.8 km/h 6.4 km/h 81 % 0 mm
10:00 18.2 °C 14.4 °C 1008 hPa South 1.6 km/h 6.4 km/h 79 % 0 mm
10:05 18.5 °C 14.2 °C 1008 hPa South 4.8 km/h 6.4 km/h 76 % 0 mm
10:10 18.9 °C 14.6 °C 1008.4 hPa Calm   4.8 km/h 76 % 0 mm
10:15 19.4 °C 14.4 °C 1008.4 hPa Calm   3.2 km/h 73 % 0 mm
10:20 19.9 °C 14.9 °C 1008.4 hPa South 1.6 km/h 4.8 km/h 73 % 0 mm
10:25 20.4 °C 15 °C 1008.4 hPa South 3.2 km/h 4.8 km/h 71 % 0 mm
10:30 20.9 °C 15.1 °C 1008 hPa South 3.2 km/h 6.4 km/h 69 % 0 mm
10:35 21.3 °C 14.9 °C 1008 hPa South 3.2 km/h 8 km/h 67 % 0 mm
10:40 21.5 °C 14.4 °C 1008 hPa South 1.6 km/h 6.4 km/h 64 % 0 mm
10:45 21.7 °C 14.1 °C 1008 hPa Calm   6.4 km/h 62 % 0 mm
10:50 21.6 °C 13.4 °C 1008 hPa South 1.6 km/h 4.8 km/h 60 % 0 mm
10:55 21.7 °C 13.3 °C 1008 hPa South 1.6 km/h 4.8 km/h 59 % 0 mm
11:00 21.9 °C 11.9 °C 1008 hPa South 1.6 km/h 4.8 km/h 53 % 0 mm
11:05 22.9 °C 12.3 °C 1008 hPa South 3.2 km/h 6.4 km/h 51 % 0 mm
11:10 23.6 °C 11.9 °C 1008 hPa South 4.8 km/h 4.8 km/h 48 % 0 mm
11:15 24 °C 11.3 °C 1008 hPa South 1.6 km/h 6.4 km/h 45 % 0 mm
11:20 24 °C 11.7 °C 1008 hPa South 3.2 km/h 6.4 km/h 46 % 0 mm
11:25 24.4 °C 11.3 °C 1008 hPa South 4.8 km/h 8 km/h 44 % 0 mm
11:30 24.3 °C 11.3 °C 1008 hPa South 3.2 km/h 6.4 km/h 44 % 0 mm
11:35 24.3 °C 12.3 °C 1008 hPa South 4.8 km/h 8 km/h 47 % 0 mm
11:40 24.4 °C 11.7 °C 1008 hPa South 3.2 km/h 8 km/h 45 % 0 mm
11:45 24.7 °C 12 °C 1008 hPa South 3.2 km/h 8 km/h 45 % 0 mm
11:50 25.1 °C 12.3 °C 1008 hPa South 4.8 km/h 6.4 km/h 45 % 0 mm
11:55 25.5 °C 12.3 °C 1008 hPa South 3.2 km/h 8 km/h 44 % 0 mm
12:00 26.2 °C 12.6 °C 1008 hPa South 1.6 km/h 6.4 km/h 43 % 0 mm
12:05 27.1 °C 12.3 °C 1008 hPa South 1.6 km/h 6.4 km/h 40 % 0 mm
12:10 27.6 °C 12.4 °C 1008 hPa South 3.2 km/h 4.8 km/h 39 % 0 mm
12:15 28.3 °C 11.8 °C 1008 hPa South 3.2 km/h 6.4 km/h 36 % 0 mm
12:20 28.7 °C 10.8 °C 1007.7 hPa South 3.2 km/h 6.4 km/h 33 % 0 mm
12:25 28.9 °C 11.9 °C 1007.7 hPa South 3.2 km/h 6.4 km/h 35 % 0 mm
12:30 29.8 °C 11.8 °C 1007.7 hPa South 1.6 km/h 6.4 km/h 33 % 0 mm
12:35 30 °C 11 °C 1007.3 hPa South 4.8 km/h 8 km/h 31 % 0 mm
12:40 30.3 °C 9.7 °C 1007.3 hPa South 1.6 km/h 6.4 km/h 28 % 0 mm
12:45 31 °C 11.4 °C 1007.3 hPa South 3.2 km/h 4.8 km/h 30 % 0 mm
12:50 31.3 °C 11.1 °C 1007.3 hPa South 1.6 km/h 3.2 km/h 29 % 0 mm
12:55 31.9 °C 11.1 °C 1007.3 hPa South 3.2 km/h 4.8 km/h 28 % 0 mm
13:00 32.3 °C 10.9 °C 1007.3 hPa South 1.6 km/h 3.2 km/h 27 % 0 mm
13:05 33.1 °C 11.1 °C 1007.3 hPa South 1.6 km/h 4.8 km/h 26 % 0 mm
13:10 33.5 °C 10.8 °C 1007.3 hPa South 1.6 km/h 6.4 km/h 25 % 0 mm
13:15 33.6 °C 10.8 °C 1007.3 hPa South 1.6 km/h 4.8 km/h 25 % 0 mm
13:20 34.1 °C 10.7 °C 1007.3 hPa Calm   4.8 km/h 24 % 0 mm
13:25 34.3 °C 11.4 °C 1007.3 hPa South 1.6 km/h 4.8 km/h 25 % 0 mm
13:30 34.4 °C 10.9 °C 1007.3 hPa South 1.6 km/h 3.2 km/h 24 % 0 mm
13:35 34.7 °C 11.2 °C 1007.7 hPa Calm   3.2 km/h 24 % 0 mm
13:40 34.9 °C 11.4 °C 1007.7 hPa Calm     24 % 0 mm
13:45 35.3 °C 11 °C 1007.3 hPa South 1.6 km/h 4.8 km/h 23 % 0 mm
13:50 35.6 °C 11.3 °C 1007.3 hPa South 3.2 km/h 4.8 km/h 23 % 0 mm
13:55 35.9 °C 10.8 °C 1007.3 hPa South 3.2 km/h 4.8 km/h 22 % 0 mm
14:00 36.1 °C 10.3 °C 1007.3 hPa South 3.2 km/h 4.8 km/h 21 % 0 mm
14:05 36.1 °C 8.8 °C 1007.3 hPa South 4.8 km/h 11.3 km/h 19 % 0 mm
14:10 36.2 °C 6.4 °C 1007.3 hPa SW 9.7 km/h 19.3 km/h 16 % 0 mm
14:15 36.2 °C 7.3 °C 1007.3 hPa West 11.3 km/h 16.1 km/h 17 % 0 mm
14:20 36.2 °C 7.2 °C 1007.3 hPa West 11.3 km/h 16.1 km/h 17 % 0 mm
14:25 36.1 °C 7.2 °C 1007.3 hPa WNW 4.8 km/h 12.9 km/h 17 % 0 mm
14:30 36.3 °C 6.4 °C 1007.3 hPa WNW 8 km/h 11.3 km/h 16 % 0 mm
14:35 37.2 °C 6.2 °C 1007.3 hPa WNW 12.9 km/h 20.9 km/h 15 % 0 mm
14:40 37.1 °C 7.1 °C 1007.3 hPa West 4.8 km/h 17.7 km/h 16 % 0 mm
14:45 37.1 °C 6.1 °C 1007.3 hPa WNW 11.3 km/h 17.7 km/h 15 % 0 mm
14:50 37.1 °C 5.2 °C 1007.3 hPa WNW 9.7 km/h 22.5 km/h 14 % 0 mm
14:55 37 °C 6.1 °C 1007.3 hPa WNW 12.9 km/h 17.7 km/h 15 % 0 mm
15:00 37 °C 5.1 °C 1007.3 hPa West 12.9 km/h 17.7 km/h 14 % 0 mm
15:05 36.8 °C 4.9 °C 1007.3 hPa West 11.3 km/h 19.3 km/h 14 % 0 mm
15:10 36.7 °C 4.9 °C 1007.3 hPa WNW 8 km/h 19.3 km/h 14 % 0 mm
15:15 36.7 °C 4.8 °C 1007.3 hPa WNW 12.9 km/h 17.7 km/h 14 % 0 mm
15:20 36.6 °C 5.7 °C 1007.3 hPa WNW 8 km/h 19.3 km/h 15 % 0 mm
15:25 36.7 °C 7.7 °C 1007.3 hPa WNW 11.3 km/h 14.5 km/h 17 % 0 mm
15:30 37.1 °C 7.1 °C 1007.3 hPa WNW 12.9 km/h 20.9 km/h 16 % 0 mm
15:35 36.9 °C 7 °C 1007.3 hPa West 11.3 km/h 19.3 km/h 16 % 0 mm
15:40 36.7 °C 6.8 °C 1007.3 hPa West 8 km/h 19.3 km/h 16 % 0 mm
15:45 36.6 °C 7.6 °C 1007.3 hPa WSW 9.7 km/h 16.1 km/h 17 % 0 mm
18:38 28.1 °C 11.6 °C 1006.3 hPa SE 3.7 km/h 6.3 km/h 36 % 0 mm
18:44 28.1 °C 11.6 °C 1006.3 hPa SE 7.4 km/h 1.3 km/h 36 % 0 mm
18:50 28.4 °C 11.9 °C 1008.4 hPa SSE 12.9 km/h 20.9 km/h 36 % 0 mm
18:54 28.1 °C 11.6 °C 1006.3 hPa SE 3.2 km/h 0.5 km/h 36 % 0 mm
18:59 28.1 °C 12 °C 1005.6 hPa SE 6.4 km/h 5.8 km/h 37 % 0 mm
19:04 28.1 °C 11.6 °C 1005.6 hPa SE 5.6 km/h 3.1 km/h 36 % 0 mm
19:09 28.1 °C 11.6 °C 1005.6 hPa SE 9.7 km/h 5.6 km/h 36 % 0 mm
19:14 28.1 °C 11.6 °C 1006 hPa SE 6.4 km/h 4.8 km/h 36 % 0 mm
19:19 28.1 °C 11.6 °C 1005.6 hPa SE 5.6 km/h 2.3 km/h 36 % 0 mm
19:24 28.1 °C 11.6 °C 1005.6 hPa SE 14.8 km/h 9.3 km/h 36 % 0 mm
19:29 28.2 °C 11.7 °C 1005.6 hPa SE 6.4 km/h 5.8 km/h 36 % 0 mm
19:34 28.2 °C 11.7 °C 1005.6 hPa SE 8 km/h 5.1 km/h 36 % 0 mm
19:39 28.3 °C 11.8 °C 1005.6 hPa SE 9.3 km/h 6.8 km/h 36 % 0 mm
19:44 28.3 °C 11.4 °C 1005.6 hPa SE 7.4 km/h 3.7 km/h 35 % 0 mm
19:49 28.4 °C 11.4 °C 1005.6 hPa SE 5.6 km/h 2.3 km/h 35 % 0 mm
19:54 28.4 °C 11.4 °C 1005.6 hPa SE 5.6 km/h 2.3 km/h 35 % 0 mm
19:59 28.3 °C 11.4 °C 1006 hPa SE 7.4 km/h 6.8 km/h 35 % 0 mm
20:04 28.2 °C 11.7 °C 1006 hPa SE 7.4 km/h 3.5 km/h 36 % 0 mm
20:09 28.1 °C 11.6 °C 1006.3 hPa SE 8 km/h 8.7 km/h 36 % 0 mm
20:14 27.9 °C 11.5 °C 1006.3 hPa SE 9.3 km/h 6.6 km/h 36 % 0 mm
20:19 27.9 °C 11.4 °C 1006.3 hPa SE 8 km/h 3.5 km/h 36 % 0 mm
20:24 27.8 °C 11.4 °C 1006.3 hPa SE 5.6 km/h 4.8 km/h 36 % 0 mm
20:29 27.7 °C 11.3 °C 1006.7 hPa SE 5.6 km/h 4 km/h 36 % 0 mm
20:34 27.6 °C 11.6 °C 1006.3 hPa SE 3.7 km/h 0.8 km/h 37 % 0 mm
20:39 27.5 °C 11.5 °C 1006.7 hPa Calm     37 % 0 mm
20:44 27.3 °C 11.3 °C 1006.7 hPa Calm     37 % 0 mm
20:49 27.1 °C 11.6 °C 1006.7 hPa Calm     38 % 0 mm
20:54 26.9 °C 11.8 °C 1006.7 hPa SE 3.7 km/h 2.3 km/h 39 % 0 mm
20:59 26.7 °C 11.6 °C 1006.7 hPa SE 3.7 km/h 1.6 km/h 39 % 0 mm
21:04 26.5 °C 11.8 °C 1006.3 hPa Calm     40 % 0 mm
21:09 26.3 °C 12 °C 1006.3 hPa Calm     41 % 0 mm
21:14 26 °C 12.1 °C 1006.3 hPa Calm     42 % 0 mm
21:19 25.7 °C 12.2 °C 1006.3 hPa Calm     43 % 0 mm
21:24 25.5 °C 12.3 °C 1006.3 hPa Calm     44 % 0 mm
21:29 25.3 °C 12.5 °C 1006.7 hPa Calm     45 % 0 mm
21:34 25.1 °C 12.3 °C 1006.7 hPa SE 3.2 km/h 1.6 km/h 45 % 0 mm
21:39 25 °C 12.2 °C 1006.7 hPa SE 3.7 km/h   45 % 0 mm
21:44 24.9 °C 12.5 °C 1006.7 hPa Calm     46 % 0 mm
21:49 24.8 °C 12.4 °C 1006.7 hPa Calm     46 % 0 mm
21:54 24.6 °C 12.2 °C 1006.7 hPa Calm     46 % 0 mm
21:59 24.6 °C 12.8 °C 1007 hPa Calm     48 % 0 mm
22:04 24.4 °C 12.7 °C 1007 hPa SE 3.7 km/h 3.4 km/h 48 % 0 mm
22:09 24.3 °C 12.6 °C 1007 hPa SE 3.7 km/h 1.3 km/h 48 % 0 mm
22:14 24.3 °C 12.9 °C 1007 hPa Calm     49 % 0 mm
22:19 24.2 °C 12.8 °C 1006.7 hPa Calm     49 % 0 mm
22:24 24.1 °C 13 °C 1007 hPa Calm     50 % 0 mm
22:29 23.9 °C 12.6 °C 1007 hPa Calm     49 % 0 mm
22:34 23.9 °C 12.5 °C 1007 hPa Calm     49 % 0 mm
22:39 23.9 °C 12.2 °C 1007 hPa Calm     48 % 0 mm
22:44 23.9 °C 12.8 °C 1007 hPa Calm     50 % 0 mm
22:49 23.9 °C 12.5 °C 1007 hPa Calm     49 % 0 mm
22:54 23.8 °C 12.4 °C 1007 hPa Calm     49 % 0 mm
22:59 23.8 °C 12.4 °C 1007 hPa Calm     49 % 0 mm
23:04 23.9 °C 12.9 °C 1006.7 hPa Calm     50 % 0 mm
23:09 23.9 °C 12.8 °C 1006.7 hPa SE 1.9 km/h 0.2 km/h 50 % 0 mm
23:14 23.8 °C 12.8 °C 1006.7 hPa Calm     50 % 0 mm
23:19 23.7 °C 13 °C 1006.7 hPa Calm     51 % 0 mm
23:24 23.6 °C 12.9 °C 1006.7 hPa SE 3.7 km/h 1 km/h 51 % 0 mm
23:29 23.5 °C 13.1 °C 1006.7 hPa Calm     52 % 0 mm
23:34 23.4 °C 12.9 °C 1006.7 hPa SE 1.6 km/h 1.6 km/h 52 % 0 mm
23:39 23.4 °C 12.9 °C 1006.7 hPa SE 6.4 km/h 5 km/h 52 % 0 mm
23:44 23.4 °C 12.9 °C 1006.3 hPa Calm     52 % 0 mm
23:49 23.2 °C 13.1 °C 1006.3 hPa Calm     53 % 0 mm
23:54 23.1 °C 12.9 °C 1006.3 hPa Calm     53 % 0 mm
23:59 22.8 °C 13.1 °C 1006.3 hPa Calm     54 % 0 mm
Ararat Weather
Compliments of Weather Underground - 2.5 mb
Click here to send mail.


ABOUT

Live weather data from Ararat, Victoria, Australia, 3377
Data uploaded from Cumulus every 5 minutes to Weather Underground.
This site then downloads the raw data for formatting and display.
Metric and imperial data can be displayed. Graphs and historical data available.
Includes Sun and Moon times and rain image live from BOM.

Check out Ararat Weather on Facebook, Twitter and Google +

Help support ongoing costs by checking out the ads





Follow @AraratWeather